createdAt,value
2016-11-29T00:00:13.019Z,18.78
2016-11-29T00:01:13.107Z,18.76
2016-11-29T00:02:12.859Z,18.76
2016-11-29T00:03:13.753Z,18.77
2016-11-29T00:04:12.356Z,18.76
2016-11-29T00:05:12.900Z,18.74
2016-11-29T00:06:12.628Z,18.76
2016-11-29T00:07:11.738Z,18.75
2016-11-29T00:08:13.971Z,18.79
2016-11-29T00:09:10.938Z,18.77
2016-11-29T00:10:13.820Z,18.77
2016-11-29T00:11:10.834Z,18.75
2016-11-29T00:12:13.412Z,18.76
2016-11-29T00:13:12.296Z,18.83
2016-11-29T00:14:12.260Z,18.75
2016-11-29T00:15:12.816Z,18.75
2016-11-29T00:16:12.416Z,18.79
2016-11-29T00:17:11.003Z,18.74
2016-11-29T00:18:11.248Z,18.73
2016-11-29T00:19:12.403Z,18.74
2016-11-29T00:20:12.508Z,18.76
2016-11-29T00:21:12.368Z,18.74
2016-11-29T00:22:10.458Z,18.73
2016-11-29T00:23:12.190Z,18.72
2016-11-29T00:24:13.007Z,18.77
2016-11-29T00:25:12.650Z,18.73
2016-11-29T00:26:13.436Z,18.73
2016-11-29T00:27:12.500Z,18.74
2016-11-29T00:28:12.864Z,18.77
2016-11-29T00:29:12.091Z,18.71
2016-11-29T00:30:19.324Z,18.72
2016-11-29T00:31:12.327Z,18.73
2016-11-29T00:32:12.432Z,18.70
2016-11-29T00:33:12.867Z,18.75
2016-11-29T00:34:12.729Z,18.72
2016-11-29T00:35:11.702Z,18.72
2016-11-29T00:36:11.700Z,18.71
2016-11-29T00:37:13.276Z,18.70
2016-11-29T00:38:13.767Z,18.71
2016-11-29T00:39:12.350Z,18.73
2016-11-29T00:40:12.511Z,18.69
2016-11-29T00:41:12.615Z,18.70
2016-11-29T00:42:11.823Z,18.68
2016-11-29T00:43:13.461Z,18.67
2016-11-29T00:44:12.990Z,18.71
2016-11-29T00:45:12.952Z,18.67
2016-11-29T00:46:10.951Z,18.64
2016-11-29T00:47:13.541Z,18.65
2016-11-29T00:48:12.150Z,18.71
2016-11-29T00:49:12.200Z,18.65
2016-11-29T00:50:12.334Z,18.66
2016-11-29T00:51:12.408Z,18.66
2016-11-29T00:52:12.450Z,18.65
2016-11-29T00:53:14.950Z,18.66
2016-11-29T00:54:12.135Z,18.66
2016-11-29T00:55:12.671Z,18.70
2016-11-29T00:56:11.718Z,18.66
2016-11-29T00:57:11.766Z,18.65
2016-11-29T00:58:12.178Z,18.70
2016-11-29T00:59:12.158Z,18.67
2016-11-29T01:00:15.189Z,18.64
2016-11-29T01:01:14.567Z,18.65
2016-11-29T01:02:16.142Z,18.64
2016-11-29T01:03:12.802Z,18.64
2016-11-29T01:04:14.240Z,18.63
2016-11-29T01:05:13.546Z,18.66
2016-11-29T01:06:14.748Z,18.63
2016-11-29T01:07:15.662Z,18.67
2016-11-29T01:08:16.662Z,18.62
2016-11-29T01:09:12.519Z,18.63
2016-11-29T01:10:14.658Z,18.64
2016-11-29T01:11:14.068Z,18.64
2016-11-29T01:12:11.837Z,19.15
2016-11-29T01:13:17.996Z,19.20
2016-11-29T01:14:12.648Z,19.22
2016-11-29T01:15:12.442Z,19.22
2016-11-29T01:16:15.060Z,19.23
2016-11-29T01:17:14.280Z,19.24
2016-11-29T01:18:15.754Z,19.23
2016-11-29T01:19:11.930Z,18.72
2016-11-29T01:20:13.158Z,18.68
2016-11-29T01:21:13.491Z,18.65
2016-11-29T01:22:13.499Z,18.65
2016-11-29T01:23:14.126Z,18.64
2016-11-29T01:24:14.184Z,18.63
2016-11-29T01:25:12.835Z,18.62
2016-11-29T01:26:13.290Z,18.62
2016-11-29T01:27:13.075Z,18.63
2016-11-29T01:28:10.919Z,18.62
2016-11-29T01:29:12.450Z,18.62
2016-11-29T01:30:12.969Z,18.65
2016-11-29T01:31:12.015Z,18.60
2016-11-29T01:32:12.941Z,18.62
2016-11-29T01:33:13.861Z,18.61
2016-11-29T01:34:12.411Z,18.62
2016-11-29T01:35:14.897Z,18.60
2016-11-29T01:36:17.591Z,18.61
2016-11-29T01:37:12.329Z,18.61
2016-11-29T01:38:15.328Z,18.61
2016-11-29T01:39:11.099Z,18.61
2016-11-29T01:40:10.848Z,19.12
2016-11-29T01:41:13.361Z,19.17
2016-11-29T01:42:13.010Z,19.20
2016-11-29T01:43:15.587Z,18.69
2016-11-29T01:44:14.522Z,18.64
2016-11-29T01:45:11.947Z,18.62
2016-11-29T01:46:13.310Z,18.61
2016-11-29T01:47:14.247Z,18.60
2016-11-29T01:48:12.320Z,18.61
2016-11-29T01:49:13.023Z,18.60
2016-11-29T01:50:13.655Z,18.61
2016-11-29T01:51:13.290Z,18.62
2016-11-29T01:52:13.115Z,18.60
2016-11-29T01:53:14.510Z,18.58
2016-11-29T01:54:12.679Z,18.61
2016-11-29T01:55:12.411Z,18.67
2016-11-29T01:56:13.029Z,18.60
2016-11-29T01:57:12.711Z,18.59
2016-11-29T01:58:13.600Z,18.58
2016-11-29T01:59:11.728Z,18.58
2016-11-29T02:00:12.612Z,18.60
2016-11-29T02:01:12.509Z,18.60
2016-11-29T02:02:13.668Z,18.58
2016-11-29T02:03:12.685Z,18.59
2016-11-29T02:04:17.419Z,18.58
2016-11-29T02:05:13.960Z,18.57
2016-11-29T02:06:13.275Z,18.56
2016-11-29T02:07:14.450Z,18.55
2016-11-29T02:08:14.264Z,18.56
2016-11-29T02:09:09.574Z,18.57
2016-11-29T02:10:12.266Z,18.59
2016-11-29T02:11:12.361Z,18.57
2016-11-29T02:12:12.855Z,18.58
2016-11-29T02:13:11.963Z,18.56
2016-11-29T02:14:12.516Z,18.58
2016-11-29T02:15:13.048Z,18.55
2016-11-29T02:16:12.693Z,18.55
2016-11-29T02:17:13.955Z,18.55
2016-11-29T02:18:13.708Z,18.55
2016-11-29T02:19:13.481Z,18.53
2016-11-29T02:20:12.590Z,18.55
2016-11-29T02:21:12.293Z,18.55
2016-11-29T02:22:12.856Z,18.55
2016-11-29T02:23:12.763Z,18.54
2016-11-29T02:24:09.252Z,18.54
2016-11-29T02:25:13.012Z,18.57
2016-11-29T02:26:13.336Z,18.57
2016-11-29T02:27:14.856Z,18.55
2016-11-29T02:28:12.055Z,18.55
2016-11-29T02:29:12.788Z,18.56
2016-11-29T02:30:12.026Z,18.55
2016-11-29T02:31:12.252Z,18.54
2016-11-29T02:32:12.202Z,18.55
2016-11-29T02:33:12.275Z,18.54
2016-11-29T02:34:13.607Z,18.54
2016-11-29T02:35:12.465Z,18.54
2016-11-29T02:36:12.819Z,18.53
2016-11-29T02:37:11.137Z,18.52
2016-11-29T02:38:12.342Z,19.04
2016-11-29T02:39:14.336Z,18.81
2016-11-29T02:40:12.983Z,18.63
2016-11-29T02:41:14.899Z,18.57
2016-11-29T02:42:12.826Z,18.56
2016-11-29T02:43:13.796Z,18.55
2016-11-29T02:44:12.614Z,18.54
2016-11-29T02:45:12.353Z,18.53
2016-11-29T02:46:12.432Z,18.54
2016-11-29T02:47:13.043Z,18.55
2016-11-29T02:48:13.432Z,18.55
2016-11-29T02:49:13.643Z,18.52
2016-11-29T02:50:12.299Z,18.53
2016-11-29T02:51:13.109Z,18.51
2016-11-29T02:52:12.944Z,18.52
2016-11-29T02:53:11.916Z,18.51
2016-11-29T02:54:12.743Z,18.52
2016-11-29T02:55:13.173Z,18.51
2016-11-29T02:56:12.163Z,18.52
2016-11-29T02:57:12.915Z,18.52
2016-11-29T02:58:12.721Z,18.52
2016-11-29T02:59:10.954Z,18.53
2016-11-29T03:00:13.024Z,18.51
2016-11-29T03:01:12.544Z,18.55
2016-11-29T03:02:12.628Z,18.51
2016-11-29T03:03:11.669Z,18.51
2016-11-29T03:04:11.765Z,18.53
2016-11-29T03:05:14.109Z,18.52
2016-11-29T03:06:12.686Z,18.50
2016-11-29T03:07:13.248Z,18.50
2016-11-29T03:08:12.354Z,18.49
2016-11-29T03:09:13.034Z,18.55
2016-11-29T03:10:12.612Z,18.51
2016-11-29T03:11:12.483Z,18.51
2016-11-29T03:12:13.366Z,18.50
2016-11-29T03:13:12.426Z,18.51
2016-11-29T03:14:13.461Z,18.50
2016-11-29T03:15:13.160Z,18.50
2016-11-29T03:16:13.832Z,18.49
2016-11-29T03:17:10.181Z,18.48
2016-11-29T03:18:13.176Z,18.49
2016-11-29T03:19:13.052Z,18.50
2016-11-29T03:20:12.745Z,18.48
2016-11-29T03:21:12.427Z,18.49
2016-11-29T03:22:13.412Z,18.49
2016-11-29T03:23:13.716Z,18.49
2016-11-29T03:24:12.676Z,18.49
2016-11-29T03:25:12.776Z,18.50
2016-11-29T03:26:11.745Z,18.49
2016-11-29T03:27:13.307Z,18.49
2016-11-29T03:28:12.452Z,18.49
2016-11-29T03:29:13.477Z,18.48
2016-11-29T03:30:12.711Z,18.48
2016-11-29T03:31:11.815Z,18.48
2016-11-29T03:32:11.972Z,18.49
2016-11-29T03:33:12.309Z,18.49
2016-11-29T03:34:13.226Z,18.48
2016-11-29T03:35:12.471Z,18.49
2016-11-29T03:36:14.361Z,18.48
2016-11-29T03:37:12.272Z,18.49
2016-11-29T03:38:13.342Z,18.48
2016-11-29T03:39:12.418Z,18.49
2016-11-29T03:40:14.030Z,18.47
2016-11-29T03:41:14.721Z,18.48
2016-11-29T03:42:15.655Z,18.48
2016-11-29T03:43:12.443Z,18.47
2016-11-29T03:44:11.191Z,18.46
2016-11-29T03:45:12.894Z,18.99
2016-11-29T03:46:12.405Z,19.02
2016-11-29T03:47:13.637Z,19.05
2016-11-29T03:48:12.394Z,19.05
2016-11-29T03:49:13.783Z,19.07
2016-11-29T03:50:13.239Z,18.77
2016-11-29T03:51:12.332Z,18.56
2016-11-29T03:52:12.331Z,18.52
2016-11-29T03:53:14.583Z,18.49
2016-11-29T03:54:11.801Z,18.47
2016-11-29T03:55:12.810Z,18.46
2016-11-29T03:56:12.062Z,18.45
2016-11-29T03:57:13.861Z,18.46
2016-11-29T03:58:13.383Z,18.47
2016-11-29T03:59:13.647Z,18.45
2016-11-29T04:00:12.683Z,18.46
2016-11-29T04:01:11.838Z,18.45
2016-11-29T04:02:10.124Z,18.43
2016-11-29T04:03:11.850Z,18.43
2016-11-29T04:04:12.938Z,18.96
2016-11-29T04:05:12.674Z,19.00
2016-11-29T04:06:12.453Z,19.05
2016-11-29T04:07:13.460Z,19.04
2016-11-29T04:08:12.671Z,18.89
2016-11-29T04:09:10.663Z,18.52
2016-11-29T04:10:12.866Z,18.51
2016-11-29T04:11:13.600Z,18.46
2016-11-29T04:12:12.483Z,18.44
2016-11-29T04:13:13.351Z,18.44
2016-11-29T04:14:13.228Z,18.43
2016-11-29T04:15:12.975Z,18.43
2016-11-29T04:16:13.873Z,18.43
2016-11-29T04:17:13.599Z,18.49
2016-11-29T04:18:12.411Z,18.60
2016-11-29T04:19:13.468Z,18.47
2016-11-29T04:20:12.271Z,18.46
2016-11-29T04:21:12.489Z,18.44
2016-11-29T04:22:14.243Z,18.43
2016-11-29T04:23:13.132Z,18.44
2016-11-29T04:24:12.968Z,18.44
2016-11-29T04:25:13.643Z,18.43
2016-11-29T04:26:12.629Z,18.43
2016-11-29T04:27:12.539Z,18.43
2016-11-29T04:28:12.423Z,18.42
2016-11-29T04:29:12.840Z,18.45
2016-11-29T04:30:10.838Z,18.42
2016-11-29T04:31:12.443Z,18.44
2016-11-29T04:32:12.463Z,18.43
2016-11-29T04:33:11.423Z,18.44
2016-11-29T04:34:09.754Z,18.44
2016-11-29T04:35:12.714Z,18.43
2016-11-29T04:36:11.986Z,18.96
2016-11-29T04:37:13.944Z,18.99
2016-11-29T04:38:14.166Z,19.02
2016-11-29T04:39:11.292Z,19.03
2016-11-29T04:40:12.546Z,19.04
2016-11-29T04:41:12.501Z,19.03
2016-11-29T04:42:12.565Z,19.03
2016-11-29T04:43:12.501Z,18.66
2016-11-29T04:44:12.560Z,18.52
2016-11-29T04:45:11.603Z,18.47
2016-11-29T04:46:13.303Z,18.43
2016-11-29T04:47:12.963Z,18.49
2016-11-29T04:48:12.028Z,18.41
2016-11-29T04:49:13.626Z,18.40
2016-11-29T04:50:13.304Z,18.41
2016-11-29T04:51:12.770Z,18.40
2016-11-29T04:52:11.856Z,18.41
2016-11-29T04:53:12.539Z,18.44
2016-11-29T04:54:13.608Z,18.40
2016-11-29T04:55:12.296Z,18.40
2016-11-29T04:56:10.439Z,18.39
2016-11-29T04:57:12.386Z,18.40
2016-11-29T04:58:12.821Z,18.44
2016-11-29T04:59:13.675Z,18.40
2016-11-29T05:00:13.366Z,18.40
2016-11-29T05:01:13.220Z,18.40
2016-11-29T05:02:10.915Z,18.40
2016-11-29T05:03:12.717Z,18.41
2016-11-29T05:04:11.674Z,18.39
2016-11-29T05:05:12.056Z,18.40
2016-11-29T05:06:12.016Z,18.40
2016-11-29T05:07:12.001Z,18.39
2016-11-29T05:08:11.115Z,18.40
2016-11-29T05:09:12.844Z,18.39
2016-11-29T05:10:12.066Z,18.40
2016-11-29T05:11:12.509Z,18.39
2016-11-29T05:12:11.734Z,18.39
2016-11-29T05:13:12.478Z,18.39
2016-11-29T05:14:14.327Z,18.40
2016-11-29T05:15:12.430Z,18.41
2016-11-29T05:16:13.169Z,18.39
2016-11-29T05:17:13.644Z,18.44
2016-11-29T05:18:12.255Z,18.38
2016-11-29T05:19:11.915Z,18.39
2016-11-29T05:20:12.966Z,18.40
2016-11-29T05:21:12.826Z,18.38
2016-11-29T05:22:13.173Z,18.38
2016-11-29T05:23:13.556Z,18.42
2016-11-29T05:24:10.759Z,18.37
2016-11-29T05:25:16.241Z,18.92
2016-11-29T05:26:12.327Z,18.94
2016-11-29T05:27:12.400Z,18.46
2016-11-29T05:28:12.436Z,18.41
2016-11-29T05:29:11.158Z,18.38
2016-11-29T05:30:13.893Z,18.92
2016-11-29T05:31:12.825Z,18.96
2016-11-29T05:32:13.827Z,18.98
2016-11-29T05:33:12.494Z,18.99
2016-11-29T05:34:13.119Z,18.98
2016-11-29T05:35:13.439Z,18.99
2016-11-29T05:36:12.545Z,18.99
2016-11-29T05:37:12.623Z,19.01
2016-11-29T05:38:11.849Z,18.99
2016-11-29T05:39:15.607Z,18.98
2016-11-29T05:40:13.425Z,18.98
2016-11-29T05:41:11.095Z,18.99
2016-11-29T05:42:13.309Z,18.64
2016-11-29T05:43:13.908Z,18.44
2016-11-29T05:44:12.560Z,18.40
2016-11-29T05:45:12.267Z,18.38
2016-11-29T05:46:12.286Z,18.38
2016-11-29T05:47:12.412Z,18.36
2016-11-29T05:48:13.380Z,18.37
2016-11-29T05:49:12.909Z,18.40
2016-11-29T05:50:11.999Z,18.88
2016-11-29T05:51:10.954Z,18.42
2016-11-29T05:52:12.042Z,18.93
2016-11-29T05:53:12.642Z,18.95
2016-11-29T05:54:12.138Z,18.97
2016-11-29T05:55:12.525Z,18.97
2016-11-29T05:56:12.486Z,18.45
2016-11-29T05:57:12.838Z,18.43
2016-11-29T05:58:12.443Z,18.42
2016-11-29T05:59:13.103Z,18.37
2016-11-29T06:00:12.792Z,18.36
2016-11-29T06:01:12.513Z,18.35
2016-11-29T06:02:12.306Z,18.38
2016-11-29T06:03:14.098Z,18.35
2016-11-29T06:04:12.103Z,18.34
2016-11-29T06:05:12.780Z,18.34
2016-11-29T06:06:14.520Z,18.34
2016-11-29T06:07:12.528Z,18.35
2016-11-29T06:08:13.556Z,18.35
2016-11-29T06:09:12.254Z,18.36
2016-11-29T06:10:12.880Z,18.37
2016-11-29T06:11:12.491Z,18.39
2016-11-29T06:12:13.092Z,18.35
2016-11-29T06:13:12.162Z,18.35
2016-11-29T06:14:12.267Z,18.35
2016-11-29T06:15:12.231Z,18.35
2016-11-29T06:16:12.683Z,18.42
2016-11-29T06:17:12.243Z,18.41
2016-11-29T06:18:12.299Z,18.34
2016-11-29T06:19:13.107Z,18.35
2016-11-29T06:20:12.732Z,18.37
2016-11-29T06:21:13.315Z,18.37
2016-11-29T06:22:12.968Z,18.40
2016-11-29T06:23:12.089Z,18.42
2016-11-29T06:24:12.252Z,18.42
2016-11-29T06:25:13.950Z,18.42
2016-11-29T06:26:13.115Z,18.43
2016-11-29T06:27:12.802Z,18.44
2016-11-29T06:28:11.895Z,18.44
2016-11-29T06:29:13.754Z,18.46
2016-11-29T06:30:13.612Z,18.46
2016-11-29T06:31:14.425Z,18.47
2016-11-29T06:32:13.645Z,18.48
2016-11-29T06:33:12.764Z,18.49
2016-11-29T06:34:11.919Z,18.50
2016-11-29T06:35:12.423Z,18.57
2016-11-29T06:36:13.115Z,18.55
2016-11-29T06:37:09.413Z,18.54
2016-11-29T06:38:16.588Z,18.51
2016-11-29T06:39:14.225Z,19.01
2016-11-29T06:40:12.709Z,18.82
2016-11-29T06:41:11.864Z,18.34
2016-11-29T06:42:12.763Z,17.68
2016-11-29T06:43:11.070Z,17.33
2016-11-29T06:44:13.540Z,17.92
2016-11-29T06:45:12.528Z,18.02
2016-11-29T06:46:12.935Z,18.23
2016-11-29T06:47:11.975Z,16.74
2016-11-29T06:48:12.816Z,15.07
2016-11-29T06:49:12.473Z,14.16
2016-11-29T06:50:13.099Z,13.61
2016-11-29T06:51:13.902Z,13.93
2016-11-29T06:52:13.627Z,13.90
2016-11-29T06:53:12.822Z,14.27
2016-11-29T06:54:12.494Z,14.72
2016-11-29T06:55:13.619Z,15.01
2016-11-29T06:56:11.701Z,15.24
2016-11-29T06:57:10.616Z,15.47
2016-11-29T06:58:12.197Z,16.36
2016-11-29T06:59:12.255Z,16.68
2016-11-29T07:00:12.321Z,16.64
2016-11-29T07:01:12.408Z,16.71
2016-11-29T07:02:12.535Z,16.80
2016-11-29T07:03:12.596Z,16.94
2016-11-29T07:04:12.841Z,17.09
2016-11-29T07:05:10.999Z,17.19
2016-11-29T07:06:13.779Z,17.32
2016-11-29T07:07:13.430Z,17.40
2016-11-29T07:08:12.694Z,17.49
2016-11-29T07:09:09.863Z,17.57
2016-11-29T07:10:12.037Z,17.62
2016-11-29T07:11:10.874Z,17.64
2016-11-29T07:12:12.553Z,18.23
2016-11-29T07:13:11.744Z,18.32
2016-11-29T07:14:14.209Z,18.36
2016-11-29T07:15:12.288Z,18.40
2016-11-29T07:16:12.934Z,18.44
2016-11-29T07:17:12.795Z,18.51
2016-11-29T07:18:12.613Z,18.52
2016-11-29T07:19:13.459Z,18.55
2016-11-29T07:20:12.799Z,18.56
2016-11-29T07:21:12.288Z,18.59
2016-11-29T07:22:12.413Z,18.61
2016-11-29T07:23:12.465Z,18.31
2016-11-29T07:24:12.583Z,18.10
2016-11-29T07:25:13.101Z,18.07
2016-11-29T07:26:12.253Z,18.06
2016-11-29T07:27:12.332Z,18.05
2016-11-29T07:28:11.116Z,18.06
2016-11-29T07:29:12.947Z,18.08
2016-11-29T07:30:12.027Z,18.08
2016-11-29T07:31:11.863Z,18.11
2016-11-29T07:32:11.985Z,18.11
2016-11-29T07:33:12.893Z,18.12
2016-11-29T07:34:12.104Z,18.14
2016-11-29T07:35:12.798Z,18.14
2016-11-29T07:36:12.429Z,18.15
2016-11-29T07:37:13.007Z,18.15
2016-11-29T07:38:12.713Z,18.16
2016-11-29T07:39:12.982Z,18.16
2016-11-29T07:40:12.917Z,18.17
2016-11-29T07:41:13.278Z,18.17
2016-11-29T07:42:12.313Z,18.17
2016-11-29T07:43:13.958Z,18.16
2016-11-29T07:44:12.119Z,18.17
2016-11-29T07:45:12.742Z,18.22
2016-11-29T07:46:12.453Z,18.17
2016-11-29T07:47:13.221Z,18.17
2016-11-29T07:48:10.836Z,18.17
2016-11-29T07:49:12.230Z,18.71
2016-11-29T07:50:13.184Z,18.40
2016-11-29T07:51:12.237Z,18.26
2016-11-29T07:52:12.759Z,18.21
2016-11-29T07:53:12.518Z,18.20
2016-11-29T07:54:13.151Z,18.19
2016-11-29T07:55:13.383Z,18.19
2016-11-29T07:56:13.268Z,18.18
2016-11-29T07:57:13.795Z,18.19
2016-11-29T07:58:13.546Z,18.18
2016-11-29T07:59:12.987Z,18.19
2016-11-29T08:00:12.323Z,18.19
2016-11-29T08:01:12.953Z,18.19
2016-11-29T08:02:12.040Z,18.19
2016-11-29T08:03:12.519Z,18.24
2016-11-29T08:04:12.936Z,18.25
2016-11-29T08:05:12.679Z,18.22
2016-11-29T08:06:12.483Z,18.21
2016-11-29T08:07:13.425Z,18.19
2016-11-29T08:08:12.368Z,18.19
2016-11-29T08:09:13.601Z,18.21
2016-11-29T08:10:11.832Z,18.20
2016-11-29T08:11:13.283Z,18.20
2016-11-29T08:12:12.930Z,18.20
2016-11-29T08:13:12.869Z,18.20
2016-11-29T08:14:12.471Z,18.24
2016-11-29T08:15:12.557Z,18.20
2016-11-29T08:16:13.329Z,18.21
2016-11-29T08:17:12.988Z,18.28
2016-11-29T08:18:12.649Z,18.21
2016-11-29T08:19:12.344Z,18.21
2016-11-29T08:20:12.523Z,18.22
2016-11-29T08:21:13.275Z,18.22
2016-11-29T08:22:12.346Z,18.23
2016-11-29T08:23:12.307Z,18.23
2016-11-29T08:24:12.534Z,18.28
2016-11-29T08:25:12.897Z,18.29
2016-11-29T08:26:12.829Z,18.24
2016-11-29T08:27:12.019Z,18.23
2016-11-29T08:28:13.140Z,18.24
2016-11-29T08:29:12.256Z,18.24
2016-11-29T08:30:12.398Z,18.23
2016-11-29T08:31:12.553Z,18.23
2016-11-29T08:32:12.713Z,18.24
2016-11-29T08:33:11.678Z,18.23
2016-11-29T08:34:13.626Z,18.23
2016-11-29T08:35:11.921Z,18.22
2016-11-29T08:36:12.989Z,18.22
2016-11-29T08:37:14.887Z,18.21
2016-11-29T08:38:12.457Z,18.25
2016-11-29T08:39:13.016Z,18.21
2016-11-29T08:40:12.107Z,18.22
2016-11-29T08:41:12.952Z,18.22
2016-11-29T08:42:18.390Z,18.23
2016-11-29T08:43:12.279Z,18.21
2016-11-29T08:44:13.036Z,18.22
2016-11-29T08:45:12.053Z,18.21
2016-11-29T08:46:12.171Z,18.20
2016-11-29T08:47:12.880Z,18.21
2016-11-29T08:48:12.077Z,18.22
2016-11-29T08:49:12.247Z,18.21
2016-11-29T08:50:13.851Z,18.19
2016-11-29T08:51:11.950Z,18.20
2016-11-29T08:52:13.656Z,18.18
2016-11-29T08:53:11.711Z,18.16
2016-11-29T08:54:12.610Z,18.15
2016-11-29T08:55:11.566Z,18.13
2016-11-29T08:56:12.611Z,18.14
2016-11-29T08:57:12.329Z,18.14
2016-11-29T08:58:12.402Z,18.15
2016-11-29T08:59:12.994Z,18.12
2016-11-29T09:00:12.227Z,18.12
2016-11-29T09:01:10.350Z,18.12
2016-11-29T09:02:13.071Z,18.16
2016-11-29T09:03:11.000Z,18.66
2016-11-29T09:04:12.244Z,18.70
2016-11-29T09:05:12.784Z,18.72
2016-11-29T09:06:11.747Z,18.22
2016-11-29T09:07:11.995Z,18.18
2016-11-29T09:08:10.052Z,18.17
2016-11-29T09:09:13.500Z,18.70
2016-11-29T09:10:11.473Z,18.70
2016-11-29T09:11:11.860Z,18.53
2016-11-29T09:12:12.021Z,18.10
2016-11-29T09:13:12.624Z,17.88
2016-11-29T09:14:13.398Z,17.88
2016-11-29T09:15:14.134Z,17.89
2016-11-29T09:16:12.646Z,17.92
2016-11-29T09:17:13.070Z,17.93
2016-11-29T09:18:13.772Z,18.00
2016-11-29T09:19:11.795Z,18.13
2016-11-29T09:20:11.873Z,18.15
2016-11-29T09:21:12.433Z,18.11
2016-11-29T09:22:12.483Z,18.17
2016-11-29T09:23:13.112Z,18.20
2016-11-29T09:24:12.943Z,17.70
2016-11-29T09:25:12.617Z,17.79
2016-11-29T09:26:12.384Z,17.80
2016-11-29T09:27:13.113Z,17.82
2016-11-29T09:28:09.474Z,17.85
2016-11-29T09:29:11.594Z,17.88
2016-11-29T09:30:11.963Z,17.95
2016-11-29T09:31:12.160Z,18.50
2016-11-29T09:32:12.894Z,18.12
2016-11-29T09:33:13.248Z,18.10
2016-11-29T09:34:12.284Z,18.03
2016-11-29T09:35:12.754Z,18.01
2016-11-29T09:36:12.587Z,17.97
2016-11-29T09:37:12.509Z,17.95
2016-11-29T09:38:18.062Z,17.97
2016-11-29T09:39:12.528Z,18.01
2016-11-29T09:40:13.241Z,17.98
2016-11-29T09:41:12.643Z,18.02
2016-11-29T09:42:12.234Z,18.02
2016-11-29T09:43:13.358Z,17.98
2016-11-29T09:44:12.951Z,17.96
2016-11-29T09:45:12.651Z,18.01
2016-11-29T09:46:12.383Z,18.15
2016-11-29T09:47:13.180Z,18.03
2016-11-29T09:48:12.281Z,18.00
2016-11-29T09:49:12.339Z,18.00
2016-11-29T09:50:14.173Z,17.99
2016-11-29T09:51:12.201Z,17.99
2016-11-29T09:52:12.881Z,18.00
2016-11-29T09:53:12.921Z,18.01
2016-11-29T09:54:12.523Z,18.04
2016-11-29T09:55:12.952Z,18.56
2016-11-29T09:56:12.028Z,18.59
2016-11-29T09:57:12.962Z,18.08
2016-11-29T09:58:13.653Z,18.04
2016-11-29T09:59:12.500Z,18.03
2016-11-29T10:00:12.738Z,18.06
2016-11-29T10:01:13.239Z,18.02
2016-11-29T10:02:12.872Z,18.03
2016-11-29T10:03:11.962Z,18.03
2016-11-29T10:04:12.701Z,18.03
2016-11-29T10:05:11.793Z,18.03
2016-11-29T10:06:12.515Z,18.04
2016-11-29T10:07:11.044Z,18.01
2016-11-29T10:08:12.801Z,18.08
2016-11-29T10:09:11.856Z,18.05
2016-11-29T10:10:18.033Z,18.06
2016-11-29T10:11:12.064Z,18.05
2016-11-29T10:12:12.054Z,18.04
2016-11-29T10:13:13.720Z,18.05
2016-11-29T10:14:11.821Z,18.05
2016-11-29T10:15:13.571Z,18.06
2016-11-29T10:16:13.439Z,18.05
2016-11-29T10:17:12.662Z,18.05
2016-11-29T10:18:14.473Z,18.05
2016-11-29T10:19:09.779Z,18.05
2016-11-29T10:20:13.516Z,18.06
2016-11-29T10:21:16.050Z,18.06
2016-11-29T10:22:12.505Z,18.11
2016-11-29T10:23:11.127Z,18.06
2016-11-29T10:24:12.790Z,18.59
2016-11-29T10:25:12.594Z,18.65
2016-11-29T10:26:13.353Z,18.66
2016-11-29T10:27:12.256Z,18.67
2016-11-29T10:28:12.792Z,18.69
2016-11-29T10:29:12.544Z,18.68
2016-11-29T10:30:12.628Z,18.70
2016-11-29T10:31:12.354Z,18.68
2016-11-29T10:32:12.332Z,18.70
2016-11-29T10:33:12.657Z,18.69
2016-11-29T10:34:12.504Z,18.69
2016-11-29T10:35:12.874Z,18.69
2016-11-29T10:36:12.517Z,18.69
2016-11-29T10:37:12.566Z,18.68
2016-11-29T10:38:13.132Z,18.69
2016-11-29T10:39:13.609Z,18.69
2016-11-29T10:40:12.313Z,18.69
2016-11-29T10:41:12.262Z,18.71
2016-11-29T10:42:12.916Z,18.70
2016-11-29T10:43:11.851Z,18.71
2016-11-29T10:44:11.852Z,18.17
2016-11-29T10:45:11.811Z,18.13
2016-11-29T10:46:11.954Z,18.10
2016-11-29T10:47:12.163Z,18.09
2016-11-29T10:48:13.981Z,18.08
2016-11-29T10:49:12.025Z,18.08
2016-11-29T10:50:12.731Z,18.17
2016-11-29T10:51:18.340Z,18.08
2016-11-29T10:52:12.424Z,18.08
2016-11-29T10:53:12.505Z,18.09
2016-11-29T10:54:12.761Z,18.13
2016-11-29T10:55:12.495Z,18.08
2016-11-29T10:56:12.506Z,18.09
2016-11-29T10:57:13.126Z,18.08
2016-11-29T10:58:14.888Z,18.08
2016-11-29T10:59:12.016Z,18.09
2016-11-29T11:00:12.649Z,18.09
2016-11-29T11:01:12.674Z,18.09
2016-11-29T11:02:12.332Z,18.09
2016-11-29T11:03:12.370Z,18.09
2016-11-29T11:04:12.446Z,18.09
2016-11-29T11:05:13.126Z,18.09
2016-11-29T11:06:12.211Z,18.08
2016-11-29T11:07:12.233Z,18.09
2016-11-29T11:08:12.556Z,18.13
2016-11-29T11:09:12.705Z,18.09
2016-11-29T11:10:12.125Z,18.10
2016-11-29T11:11:12.619Z,18.09
2016-11-29T11:12:12.630Z,18.10
2016-11-29T11:13:08.818Z,18.09
2016-11-29T11:14:12.756Z,18.09
2016-11-29T11:15:12.077Z,18.13
2016-11-29T11:16:12.188Z,18.10
2016-11-29T11:17:13.780Z,18.13
2016-11-29T11:18:13.564Z,18.10
2016-11-29T11:19:13.884Z,18.09
2016-11-29T11:20:12.036Z,18.09
2016-11-29T11:21:14.056Z,18.10
2016-11-29T11:22:12.826Z,18.09
2016-11-29T11:23:14.043Z,18.09
2016-11-29T11:24:13.566Z,18.63
2016-11-29T11:25:12.188Z,18.67
2016-11-29T11:26:12.858Z,18.69
2016-11-29T11:27:11.759Z,18.18
2016-11-29T11:28:11.722Z,18.14
2016-11-29T11:29:17.712Z,18.15
2016-11-29T11:30:11.853Z,18.11
2016-11-29T11:31:11.977Z,18.11
2016-11-29T11:32:11.931Z,18.10
2016-11-29T11:33:12.009Z,18.09
2016-11-29T11:34:12.640Z,18.09
2016-11-29T11:35:11.792Z,18.09
2016-11-29T11:36:13.664Z,18.09
2016-11-29T11:37:12.453Z,18.10
2016-11-29T11:38:11.707Z,18.09
2016-11-29T11:39:12.683Z,18.09
2016-11-29T11:40:12.408Z,18.09
2016-11-29T11:41:12.481Z,18.09
2016-11-29T11:42:09.878Z,18.09
2016-11-29T11:43:14.776Z,18.10
2016-11-29T11:44:12.491Z,18.10
2016-11-29T11:45:11.485Z,18.10
2016-11-29T11:46:12.347Z,18.13
2016-11-29T11:47:12.539Z,18.09
2016-11-29T11:48:13.323Z,18.09
2016-11-29T11:49:12.288Z,18.09
2016-11-29T11:50:12.193Z,18.09
2016-11-29T11:51:12.873Z,18.10
2016-11-29T11:52:12.738Z,18.10
2016-11-29T11:53:12.444Z,18.10
2016-11-29T11:54:12.464Z,18.09
2016-11-29T11:55:12.464Z,18.09
2016-11-29T11:56:12.665Z,18.09
2016-11-29T11:57:11.888Z,18.09
2016-11-29T11:58:11.863Z,18.10
2016-11-29T11:59:12.808Z,18.10
2016-11-29T12:00:11.758Z,18.10
2016-11-29T12:01:11.754Z,18.09
2016-11-29T12:02:12.585Z,18.10
2016-11-29T12:03:11.778Z,18.09
2016-11-29T12:04:13.588Z,18.09
2016-11-29T12:05:12.255Z,18.09
2016-11-29T12:06:12.242Z,18.10
2016-11-29T12:07:13.097Z,18.10
2016-11-29T12:08:12.717Z,18.09
2016-11-29T12:09:12.208Z,18.16
2016-11-29T12:10:12.469Z,18.13
2016-11-29T12:11:13.086Z,18.08
2016-11-29T12:12:12.227Z,18.10
2016-11-29T12:13:12.765Z,18.14
2016-11-29T12:14:19.072Z,18.09
2016-11-29T12:15:12.768Z,18.09
2016-11-29T12:16:10.159Z,18.08
2016-11-29T12:17:13.687Z,18.08
2016-11-29T12:18:13.277Z,18.10
2016-11-29T12:19:12.214Z,18.08
2016-11-29T12:20:13.769Z,18.13
2016-11-29T12:21:12.230Z,18.09
2016-11-29T12:22:12.332Z,18.09
2016-11-29T12:23:12.397Z,18.08
2016-11-29T12:24:11.199Z,18.07
2016-11-29T12:25:12.401Z,18.09
2016-11-29T12:26:12.950Z,18.16
2016-11-29T12:27:12.067Z,18.09
2016-11-29T12:28:12.508Z,18.11
2016-11-29T12:29:12.586Z,18.08
2016-11-29T12:30:13.418Z,18.08
2016-11-29T12:31:12.881Z,18.13
2016-11-29T12:32:11.995Z,18.08
2016-11-29T12:33:12.268Z,18.09
2016-11-29T12:34:12.761Z,18.12
2016-11-29T12:35:12.107Z,18.10
2016-11-29T12:36:11.003Z,18.08
2016-11-29T12:37:12.646Z,18.14
2016-11-29T12:38:12.458Z,18.09
2016-11-29T12:39:12.367Z,18.09
2016-11-29T12:40:12.869Z,18.14
2016-11-29T12:41:12.589Z,18.09
2016-11-29T12:42:10.706Z,18.08
2016-11-29T12:43:11.790Z,18.61
2016-11-29T12:44:12.679Z,18.65
2016-11-29T12:45:11.910Z,18.68
2016-11-29T12:46:12.892Z,18.70
2016-11-29T12:47:12.439Z,18.70
2016-11-29T12:48:09.680Z,18.69
2016-11-29T12:49:12.131Z,18.17
2016-11-29T12:50:12.849Z,18.16
2016-11-29T12:51:11.811Z,18.13
2016-11-29T12:52:11.721Z,18.09